Time;durP1;ratioP1;P1;durP2;ratioP2;P2;SDS_P1;SDS_P2;PMS_P1;PMS_P2;Temp;Humidity;BMP_temperature;BMP_pressure;BME280_temperature;BME280_humidity;BME280_pressure;Samples;Min_cycle;Max_cycle;Signal;HPM_P1;HPM_P2
2021/05/15 00:00:10;;;;;;;7.70;6.70;;;;;;;10.27;87.42;95534.00;4797312;29;20031;-93
2021/05/15 00:02:37;;;;;;;7.65;6.95;;;;;;;10.27;88.28;95536.72;4812236;29;20460;-94
2021/05/15 00:05:06;;;;;;;7.90;7.20;;;;;;;10.28;88.02;95536.25;4812631;29;20417;-94
2021/05/15 00:07:32;;;;;;;8.85;7.13;;;;;;;9.56;88.30;95441.84;4812110;29;20038;-94
2021/05/15 00:09:58;;;;;;;8.90;6.95;;;;;;;9.90;87.93;95494.53;4811776;29;20027;-93
2021/05/15 00:12:24;;;;;;;35.65;24.73;;;;;;;10.28;88.03;95543.63;4796683;29;20031;-93
2021/05/15 00:14:51;;;;;;;12.15;9.63;;;;;;;9.67;87.96;95463.69;4812031;29;20041;-93
2021/05/15 00:17:17;;;;;;;7.70;6.88;;;;;;;9.88;86.73;95491.56;4796833;29;20034;-94
2021/05/15 00:19:42;;;;;;;7.10;6.38;;;;;;;9.88;85.91;95488.84;4812043;29;20321;-94
2021/05/15 00:22:08;;;;;;;7.30;6.60;;;;;;;9.63;85.67;95456.97;4796375;29;20027;-94
2021/05/15 00:24:33;;;;;;;7.82;6.45;;;;;;;9.87;86.57;95476.53;4796518;29;20056;-94
2021/05/15 00:26:59;;;;;;;7.68;6.57;;;;;;;9.60;86.33;95441.66;4796523;29;20034;-93
2021/05/15 00:29:24;;;;;;;7.10;6.50;;;;;;;9.74;86.42;95472.63;4796416;29;20026;-94
2021/05/15 00:31:50;;;;;;;8.32;7.20;;;;;;;10.15;86.32;95538.53;4796328;29;20125;-94
2021/05/15 00:34:16;;;;;;;7.32;6.68;;;;;;;9.80;86.90;95493.19;4796744;29;20031;-94
2021/05/15 00:36:41;;;;;;;7.10;6.40;;;;;;;9.91;86.57;95512.34;4796052;29;20062;-94
2021/05/15 00:39:08;;;;;;;7.53;6.82;;;;;;;9.80;86.65;95489.72;4796195;29;20034;-94
2021/05/15 00:41:34;;;;;;;9.18;7.32;;;;;;;9.76;88.76;95476.38;4796283;29;20083;-93
2021/05/15 00:44:15;;;;;;;8.13;7.07;;;;;;;10.13;87.17;95538.25;4796595;29;20117;-95
2021/05/15 00:46:44;;;;;;;7.65;6.95;;;;;;;9.85;89.66;95495.22;4811153;29;20045;-94
2021/05/15 00:49:10;;;;;;;9.15;7.38;;;;;;;9.68;88.66;95476.00;4796846;29;20035;-94
2021/05/15 00:51:36;;;;;;;7.07;6.38;;;;;;;9.71;86.44;95485.94;4795705;29;20031;-94
2021/05/15 00:54:03;;;;;;;7.85;6.45;;;;;;;9.81;87.62;95499.38;4811063;29;20054;-94
2021/05/15 00:56:29;;;;;;;7.93;7.13;;;;;;;9.47;87.77;95455.50;4796079;29;20031;-94
2021/05/15 00:58:59;;;;;;;7.47;6.57;;;;;;;9.62;87.00;95485.28;4810995;29;20035;-94
2021/05/15 01:01:25;;;;;;;7.85;7.05;;;;;;;10.10;88.45;95545.38;4796498;29;20054;-95
2021/05/15 01:03:51;;;;;;;7.88;6.45;;;;;;;9.82;88.70;95496.19;4810359;29;20314;-93
2021/05/15 01:06:17;;;;;;;7.60;6.88;;;;;;;9.58;89.11;95457.63;4777904;30;20421;-94
2021/05/15 01:08:46;;;;;;;7.80;7.10;;;;;;;9.89;89.65;95498.47;4792528;30;20081;-94
2021/05/15 01:11:19;;;;;;;7.15;6.45;;;;;;;9.75;89.16;95487.69;4777872;30;20051;-94
2021/05/15 01:13:53;;;;;;;6.95;6.30;;;;;;;9.72;89.59;95489.38;4792820;30;20043;-94
2021/05/15 01:16:19;;;;;;;10.10;6.85;;;;;;;9.52;89.72;95457.56;4792682;30;20341;-94
2021/05/15 01:18:45;;;;;;;7.70;6.93;;;;;;;9.39;90.06;95444.31;4792616;30;20027;-95
2021/05/15 01:21:10;;;;;;;7.55;6.85;;;;;;;10.12;90.20;95545.66;4777892;30;20336;-94
2021/05/15 01:23:37;;;;;;;6.93;6.00;;;;;;;10.12;90.37;95545.66;4777531;30;20034;-93
2021/05/15 01:26:17;;;;;;;6.70;6.03;;;;;;;10.11;89.34;95548.81;4777510;30;20413;-94
2021/05/15 01:28:44;;;;;;;6.07;5.47;;;;;;;10.10;89.15;95556.22;4792587;30;20420;-93
2021/05/15 01:31:13;;;;;;;6.35;5.75;;;;;;;9.75;90.77;95493.09;4792614;29;20432;-93
2021/05/15 01:33:39;;;;;;;5.03;4.55;;;;;;;9.94;90.22;95518.75;4792456;30;20038;-94
2021/05/15 01:36:08;;;;;;;5.20;4.70;;;;;;;10.29;89.02;95554.03;4777361;30;20062;-94
2021/05/15 01:38:35;;;;;;;7.72;5.80;;;;;;;9.79;89.35;95486.25;4777117;30;20033;-95
2021/05/15 01:41:05;;;;;;;5.60;5.10;;;;;;;9.50;88.57;95460.00;4776970;30;20043;-93
2021/05/15 01:43:32;;;;;;;5.97;5.38;;;;;;;10.10;90.28;95556.22;4777372;30;20031;-94
2021/05/15 01:46:02;;;;;;;6.32;5.55;;;;;;;10.08;89.47;95552.50;4795188;30;20039;-94
2021/05/15 01:48:32;;;;;;;5.53;5.03;;;;;;;10.04;88.94;95552.69;4780713;30;20034;-94
2021/05/15 01:51:00;;;;;;;7.07;5.53;;;;;;;9.95;88.83;95541.94;4793891;30;20050;-93
2021/05/15 01:53:27;;;;;;;6.53;5.93;;;;;;;9.66;89.47;95508.28;4791760;30;20367;-94
2021/05/15 01:55:54;;;;;;;7.22;5.75;;;;;;;9.99;88.82;95564.22;4776762;30;20035;-95
2021/05/15 01:58:20;;;;;;;6.13;5.38;;;;;;;9.61;88.92;95500.06;4776779;30;20038;-94
2021/05/15 02:00:46;;;;;;;6.97;6.22;;;;;;;9.58;89.33;95503.72;4791741;30;20126;-95
2021/05/15 02:03:12;;;;;;;7.38;6.68;;;;;;;9.44;89.79;95505.25;4776684;30;20035;-94
2021/05/15 02:05:37;;;;;;;7.10;6.40;;;;;;;9.45;90.32;95495.91;4777265;30;20027;-94
2021/05/15 02:08:04;;;;;;;7.65;6.68;;;;;;;9.53;89.88;95523.34;4776912;30;20027;-94
2021/05/15 02:10:29;;;;;;;7.20;6.50;;;;;;;9.13;90.56;95492.19;4791518;30;20421;-94
2021/05/15 02:12:55;;;;;;;7.72;6.40;;;;;;;9.34;90.69;95501.16;4776491;30;20087;-95
2021/05/15 02:15:20;;;;;;;7.32;6.63;;;;;;;9.15;90.41;95501.34;4776511;30;20070;-94
2021/05/15 02:17:46;;;;;;;7.53;6.82;;;;;;;9.07;91.46;95494.06;4776687;30;20428;-93
2021/05/15 02:20:12;;;;;;;7.72;7.00;;;;;;;8.73;90.75;95439.34;4776340;30;20150;-95
2021/05/15 02:22:38;;;;;;;7.10;6.40;;;;;;;9.03;91.13;95494.25;4776566;30;20035;-94
2021/05/15 02:25:04;;;;;;;10.27;6.80;;;;;;;9.34;91.07;95530.97;4776504;30;20039;-95
2021/05/15 02:27:29;;;;;;;7.80;7.00;;;;;;;8.82;91.08;95457.47;4776274;30;20038;-94
2021/05/15 02:29:55;;;;;;;9.18;7.78;;;;;;;8.98;91.18;95475.22;4776272;30;20031;-94
2021/05/15 02:32:21;;;;;;;7.57;6.88;;;;;;;8.72;91.66;95453.34;4776432;30;20482;-94
2021/05/15 02:34:46;;;;;;;7.68;6.72;;;;;;;8.85;90.74;95465.41;4774996;30;20039;-94
2021/05/15 02:37:12;;;;;;;8.07;6.57;;;;;;;8.85;91.14;95475.50;4758525;30;20039;-94
2021/05/15 02:39:37;;;;;;;7.28;6.57;;;;;;;9.11;91.18;95513.59;4758762;30;20499;-95
2021/05/15 02:42:04;;;;;;;6.93;6.13;;;;;;;8.59;90.06;95443.56;4760124;30;20127;-94
2021/05/15 02:44:29;;;;;;;6.15;5.57;;;;;;;8.59;90.23;95437.41;4758385;30;20051;-94
2021/05/15 02:46:55;;;;;;;7.38;6.60;;;;;;;8.79;90.02;95486.22;4758958;30;20143;-94
2021/05/15 02:49:20;;;;;;;7.80;6.25;;;;;;;8.51;90.31;95442.41;4758498;30;20032;-94
2021/05/15 02:51:46;;;;;;;7.72;6.95;;;;;;;8.46;89.79;95439.59;4758356;30;20066;-93
2021/05/15 02:54:11;;;;;;;7.18;6.47;;;;;;;8.37;90.16;95468.25;4772933;30;20306;-92
2021/05/15 02:56:37;;;;;;;7.07;6.38;;;;;;;8.52;90.33;95478.34;4773067;30;20396;-94
2021/05/15 02:59:03;;;;;;;7.68;5.90;;;;;;;8.54;90.24;95471.25;4758113;30;20032;-94
2021/05/15 03:01:28;;;;;;;7.15;6.25;;;;;;;8.37;90.49;95454.72;4758146;30;20380;-93
2021/05/15 03:03:54;;;;;;;6.20;5.60;;;;;;;8.93;89.74;95547.75;4758206;30;20039;-94
2021/05/15 03:06:19;;;;;;;5.95;5.35;;;;;;;8.70;90.18;95494.44;4758269;30;20084;-95
2021/05/15 03:08:45;;;;;;;6.03;4.72;;;;;;;9.08;89.85;95536.94;4758103;30;20023;-93
2021/05/15 03:11:11;;;;;;;5.15;4.68;;;;;;;8.40;88.69;95461.91;4758169;30;20414;-92
2021/05/15 03:13:36;;;;;;;6.65;4.60;;;;;;;8.56;88.92;95493.19;4772969;30;20043;-94
2021/05/15 03:16:03;;;;;;;4.82;4.32;;;;;;;8.50;88.81;95472.66;4760371;30;20036;-94
2021/05/15 03:18:28;;;;;;;4.80;4.38;;;;;;;8.34;88.98;95463.72;4762215;30;20028;-94
2021/05/15 03:20:55;;;;;;;6.18;5.45;;;;;;;8.19;88.95;95448.69;4761691;30;20058;-94
2021/05/15 03:23:21;;;;;;;6.07;4.97;;;;;;;8.45;89.34;95484.13;4761590;30;20039;-94
2021/05/15 03:25:47;;;;;;;7.45;5.38;;;;;;;8.46;88.77;95491.03;4761628;30;20039;-93
2021/05/15 03:28:12;;;;;;;5.45;4.90;;;;;;;8.61;89.91;95511.50;4761494;30;20031;-93
2021/05/15 03:30:38;;;;;;;6.40;5.28;;;;;;;8.53;89.56;95498.81;4761841;30;20023;-94
2021/05/15 03:33:03;;;;;;;5.63;4.88;;;;;;;8.42;88.85;95476.94;4761544;30;20039;-94
2021/05/15 03:35:31;;;;;;;5.95;5.03;;;;;;;8.66;88.87;95518.97;4767616;30;20400;-93
2021/05/15 03:37:56;;;;;;;7.05;5.10;;;;;;;8.57;90.17;95507.47;4779312;30;20039;-93
2021/05/15 03:40:22;;;;;;;5.65;4.78;;;;;;;8.80;89.42;95547.28;4794187;30;20080;-94
2021/05/15 03:42:48;;;;;;;6.45;4.75;;;;;;;8.86;88.88;95564.38;4779479;30;20035;-94
2021/05/15 03:45:14;;;;;;;6.07;4.75;;;;;;;8.34;88.60;95490.03;4779233;30;20031;-94
2021/05/15 03:47:41;;;;;;;7.18;5.18;;;;;;;8.34;88.83;95490.78;4779111;30;20027;-95
2021/05/15 03:50:07;;;;;;;5.00;4.50;;;;;;;8.12;88.72;95457.91;4778927;30;20064;-93
2021/05/15 03:52:34;;;;;;;4.90;4.43;;;;;;;8.85;88.74;95562.16;4778885;30;20036;-93
2021/05/15 03:55:00;;;;;;;5.32;4.82;;;;;;;8.93;89.40;95563.25;4794273;30;20332;-94
2021/05/15 03:57:26;;;;;;;7.80;5.03;;;;;;;8.43;89.27;95489.25;4779258;30;20095;-93
2021/05/15 03:59:51;;;;;;;5.50;4.97;;;;;;;8.49;89.06;95498.97;4778769;30;20032;-93
2021/05/15 04:02:22;;;;;;;5.20;4.70;;;;;;;8.43;89.23;95494.69;4778794;30;20121;-94
2021/05/15 04:04:47;;;;;;;7.28;5.07;;;;;;;8.44;88.78;95501.56;4778753;30;20039;-93
2021/05/15 04:07:13;;;;;;;6.05;5.18;;;;;;;8.65;88.21;95532.97;4778824;30;20122;-94
2021/05/15 04:09:38;;;;;;;7.55;4.95;;;;;;;8.47;89.33;95516.88;4778582;30;20042;-93
2021/05/15 04:12:05;;;;;;;4.60;4.07;;;;;;;8.34;89.23;95495.47;4778891;30;20019;-93
2021/05/15 04:17:23;;;;;;;5.07;4.57;;;;;;;8.50;88.86;95524.06;4782636;30;20040;-93
2021/05/15 04:19:48;;;;;;;5.32;4.25;;;;;;;8.37;86.99;95511.56;4778564;30;20035;-95
2021/05/15 04:22:14;;;;;;;5.07;4.57;;;;;;;9.02;87.59;95587.56;4778700;30;20038;-94
2021/05/15 04:24:40;;;;;;;6.13;4.32;;;;;;;8.67;87.12;95525.13;4793139;29;20035;-94
2021/05/15 04:27:06;;;;;;;6.10;4.57;;;;;;;8.60;86.93;95528.94;4777892;30;20027;-94
2021/05/15 04:29:32;;;;;;;6.43;4.57;;;;;;;8.46;87.69;95528.91;4793462;30;20035;-94
2021/05/15 04:31:59;;;;;;;5.15;4.43;;;;;;;8.61;87.76;95546.69;4778279;30;20027;-94
2021/05/15 04:34:28;;;;;;;4.63;4.22;;;;;;;8.85;86.75;95589.22;4778236;30;20040;-94
2021/05/15 04:36:55;;;;;;;4.78;4.22;;;;;;;8.84;86.33;95585.78;4777926;30;20051;-93
2021/05/15 04:39:20;;;;;;;6.18;4.13;;;;;;;8.81;87.33;95578.56;4778255;30;20125;-94
2021/05/15 04:41:46;;;;;;;4.30;3.90;;;;;;;8.42;88.01;95531.81;4778339;30;20169;-94
2021/05/15 04:44:12;;;;;;;4.95;4.50;;;;;;;8.48;87.08;95534.63;4778304;30;20027;-94
2021/05/15 04:46:37;;;;;;;4.80;3.72;;;;;;;8.41;87.34;95533.00;4777996;30;20062;-93
2021/05/15 04:49:04;;;;;;;6.45;3.53;;;;;;;8.24;86.75;95518.38;4777991;30;20113;-93
2021/05/15 04:51:30;;;;;;;4.65;3.97;;;;;;;8.93;88.17;95598.47;4778201;30;20425;-93
2021/05/15 04:53:56;;;;;;;3.72;3.35;;;;;;;8.66;87.19;95548.75;4792714;30;20040;-94
2021/05/15 04:56:21;;;;;;;3.85;3.40;;;;;;;8.74;86.66;95548.41;4793319;29;20038;-93
2021/05/15 04:58:47;;;;;;;4.00;3.70;;;;;;;8.61;86.69;95535.13;4779076;30;20039;-93
2021/05/15 05:01:13;;;;;;;4.38;3.72;;;;;;;8.97;87.13;95576.63;4777783;30;20054;-92
2021/05/15 05:03:39;;;;;;;4.95;3.92;;;;;;;8.77;87.62;95537.38;4777803;30;20123;-93
2021/05/15 05:06:05;;;;;;;3.60;3.30;;;;;;;8.81;86.71;95548.03;4777886;30;20488;-93
2021/05/15 05:08:30;;;;;;;7.80;3.38;;;;;;;8.90;86.93;95554.13;4777657;30;20031;-94
2021/05/15 05:10:56;;;;;;;3.80;3.50;;;;;;;9.04;86.66;95573.56;4778334;30;20034;-94
2021/05/15 05:13:22;;;;;;;3.60;3.30;;;;;;;9.48;86.27;95624.31;4777655;30;20302;-94
2021/05/15 05:15:48;;;;;;;4.80;3.45;;;;;;;9.48;86.27;95624.31;4792680;30;20035;-93
2021/05/15 05:18:14;;;;;;;13.80;6.32;;;;;;;9.48;86.27;95624.31;4777727;30;20039;-93
2021/05/15 05:20:39;;;;;;;26.77;10.75;;;;;;;9.48;86.27;95624.31;4777673;30;20035;-93
2021/05/15 05:23:06;;;;;;;5.68;4.22;;;;;;;9.48;86.27;95624.31;4777653;30;20042;-94
2021/05/15 05:25:32;;;;;;;7.72;4.38;;;;;;;9.48;86.27;95624.31;4777458;30;20035;-93
2021/05/15 05:27:58;;;;;;;3.65;3.33;;;;;;;9.48;86.27;95624.31;4777490;30;20381;-94
2021/05/15 05:30:24;;;;;;;3.40;3.10;;;;;;;9.48;86.27;95624.31;4777375;30;20031;-94
2021/05/15 05:32:50;;;;;;;4.50;3.63;;;;;;;-145.61;100.00;68426.72;4777157;30;20425;-93
2021/05/15 05:35:17;;;;;;;4.10;3.67;;;;;;;-145.61;100.00;68426.72;4791688;30;20389;-92
2021/05/15 05:37:43;;;;;;;3.65;3.33;;;;;;;-145.61;100.00;68426.72;4776244;30;20084;-93
2021/05/15 05:40:10;;;;;;;4.10;3.58;;;;;;;9.48;86.27;95624.31;4777147;30;20340;-93
2021/05/15 05:42:40;;;;;;;6.70;4.18;;;;;;;-145.61;100.00;68426.72;4776735;30;20035;-93
2021/05/15 05:45:14;;;;;;;7.10;4.25;;;;;;;9.48;86.27;95624.31;4777050;30;20138;-94
2021/05/15 05:47:41;;;;;;;6.85;4.20;;;;;;;9.48;86.27;95624.31;4777023;30;20031;-94
2021/05/15 05:50:08;;;;;;;8.98;3.80;;;;;;;-145.61;100.00;68426.72;4776939;30;20072;-93
2021/05/15 05:52:34;;;;;;;6.88;4.28;;;;;;;-145.61;100.00;68426.72;4791889;30;20087;-93
2021/05/15 05:55:00;;;;;;;8.88;5.22;;;;;;;9.48;86.27;95624.31;4792039;30;20126;-94
2021/05/15 05:57:25;;;;;;;10.23;4.53;;;;;;;-145.61;100.00;68426.72;4776895;30;20027;-93
2021/05/15 05:59:51;;;;;;;8.40;3.85;;;;;;;-145.61;100.00;68426.72;4789599;30;20038;-93
2021/05/15 06:02:17;;;;;;;6.10;4.88;;;;;;;-145.61;100.00;68426.72;4784468;30;20035;-93
2021/05/15 06:04:43;;;;;;;7.38;5.15;;;;;;;-145.61;100.00;68426.72;4776552;30;20059;-93
2021/05/15 06:07:09;;;;;;;9.45;4.40;;;;;;;-145.61;100.00;68426.72;4776546;30;20035;-94
2021/05/15 06:09:34;;;;;;;6.53;4.25;;;;;;;-145.61;100.00;68426.72;4776581;30;20439;-93
2021/05/15 06:12:01;;;;;;;11.80;4.18;;;;;;;-145.61;100.00;68426.72;4776462;30;20096;-93
2021/05/15 06:14:26;;;;;;;10.23;3.70;;;;;;;-145.61;100.00;68426.72;4776507;30;20031;-93
2021/05/15 06:16:52;;;;;;;5.65;4.25;;;;;;;-145.61;100.00;68426.72;4776461;30;20417;-93
2021/05/15 06:19:18;;;;;;;7.00;4.18;;;;;;;-145.61;100.00;68426.72;4776340;30;20034;-92
2021/05/15 06:21:44;;;;;;;5.63;4.20;;;;;;;-145.61;100.00;68426.72;4776484;30;20031;-93
2021/05/15 06:24:10;;;;;;;9.75;4.45;;;;;;;-145.61;100.00;68426.72;4776275;30;20059;-93
2021/05/15 06:26:37;;;;;;;14.07;9.18;;;;;;;-145.61;100.00;68426.72;4791246;30;20035;-93
2021/05/15 06:29:03;;;;;;;12.45;6.82;;;;;;;-145.61;100.00;68426.72;4776303;30;20038;-94
2021/05/15 06:31:28;;;;;;;5.63;4.05;;;;;;;-145.61;100.00;68426.72;4776143;30;20035;-93
2021/05/15 06:33:54;;;;;;;7.80;3.95;;;;;;;-145.61;100.00;68426.72;4776328;30;20132;-94
2021/05/15 06:36:20;;;;;;;7.25;4.78;;;;;;;-145.61;100.00;68426.72;4775951;30;20051;-95
2021/05/15 06:38:45;;;;;;;8.63;5.28;;;;;;;-145.61;100.00;68426.72;4791229;30;20043;-94
2021/05/15 06:41:12;;;;;;;7.40;5.57;;;;;;;-145.61;100.00;68426.72;4792200;30;20330;-94
2021/05/15 06:43:37;;;;;;;6.22;5.63;;;;;;;-145.61;100.00;68426.72;4783827;30;20027;-93
2021/05/15 06:46:04;;;;;;;7.10;6.35;;;;;;;-145.61;100.00;68426.72;4779169;30;20439;-93
2021/05/15 06:48:29;;;;;;;8.25;6.57;;;;;;;-145.61;100.00;68426.72;4775819;30;20031;-91
2021/05/15 06:50:55;;;;;;;8.07;5.93;;;;;;;-145.61;100.00;68426.72;4775972;30;20110;-92
2021/05/15 06:53:20;;;;;;;5.82;5.20;;;;;;;-145.61;100.00;68426.72;4776084;30;20122;-92
2021/05/15 06:55:46;;;;;;;6.40;5.53;;;;;;;-145.61;100.00;68426.72;4775938;30;20446;-94
2021/05/15 06:58:13;;;;;;;6.05;5.55;;;;;;;-145.61;100.00;68426.72;4776013;30;20435;-93
2021/05/15 07:00:39;;;;;;;8.52;5.47;;;;;;;-145.61;100.00;68426.72;4776536;30;20094;-93
2021/05/15 07:03:05;;;;;;;8.52;6.05;;;;;;;-145.61;100.00;68426.72;4776549;30;20104;-93
2021/05/15 07:05:31;;;;;;;8.95;5.63;;;;;;;-145.61;100.00;68426.72;4777481;29;20161;-93
2021/05/15 07:07:56;;;;;;;7.07;6.00;;;;;;;-145.61;100.00;68426.72;4791722;29;20063;-94
2021/05/15 07:10:22;;;;;;;6.90;5.97;;;;;;;-145.61;100.00;68426.72;4793847;29;20123;-94
2021/05/15 07:12:47;;;;;;;6.55;5.82;;;;;;;-145.61;100.00;68426.72;4793871;29;20039;-91
2021/05/15 07:15:13;;;;;;;7.55;6.47;;;;;;;-145.61;100.00;68426.72;4794057;29;20023;-93
2021/05/15 07:17:38;;;;;;;8.77;6.50;;;;;;;-145.61;100.00;68426.72;4777712;30;20031;-94
2021/05/15 07:20:06;;;;;;;8.80;7.05;;;;;;;-145.61;100.00;68426.72;4775824;30;20034;-95
2021/05/15 07:22:31;;;;;;;10.55;7.95;;;;;;;-145.61;100.00;68426.72;4790523;30;20425;-92
2021/05/15 07:24:58;;;;;;;9.45;7.03;;;;;;;-145.61;100.00;68426.72;4771154;30;20038;-94
2021/05/15 07:27:27;;;;;;;9.40;7.30;;;;;;;-145.61;100.00;68426.72;4777793;30;20054;-95
2021/05/15 07:29:53;;;;;;;8.20;6.70;;;;;;;-145.61;100.00;68426.72;4777885;30;20552;-95
2021/05/15 07:32:19;;;;;;;9.93;7.55;;;;;;;-145.61;100.00;68426.72;4788308;29;20074;-95
2021/05/15 07:34:46;;;;;;;13.35;8.05;;;;;;;-145.61;100.00;68426.72;4802028;29;20117;-94
2021/05/15 07:37:13;;;;;;;11.30;8.60;;;;;;;-145.61;100.00;68426.72;4794169;29;20134;-95
2021/05/15 07:39:38;;;;;;;10.90;7.88;;;;;;;-145.61;100.00;68426.72;4792629;29;20119;-92
2021/05/15 07:42:04;;;;;;;9.52;7.72;;;;;;;-145.61;100.00;68426.72;4787623;30;20066;-93
2021/05/15 07:44:30;;;;;;;10.90;6.70;;;;;;;-145.61;100.00;68426.72;4776039;30;20031;-94
2021/05/15 07:46:56;;;;;;;9.57;7.35;;;;;;;-145.61;100.00;68426.72;4775427;30;20042;-94
2021/05/15 07:49:21;;;;;;;8.02;7.13;;;;;;;-145.61;100.00;68426.72;4775597;30;20024;-94
2021/05/15 07:51:47;;;;;;;9.13;7.03;;;;;;;-145.61;100.00;68426.72;4775820;30;20114;-94
2021/05/15 07:54:12;;;;;;;9.65;6.30;;;;;;;-145.61;100.00;68426.72;4775750;30;20032;-95
2021/05/15 07:56:38;;;;;;;8.60;6.65;;;;;;;-145.61;100.00;68426.72;4775459;30;20043;-93
2021/05/15 07:59:04;;;;;;;7.95;6.75;;;;;;;-145.61;100.00;68426.72;4777271;30;20041;-94
2021/05/15 08:01:30;;;;;;;6.68;5.97;;;;;;;-145.61;100.00;68426.72;4778003;30;20059;-91
2021/05/15 08:03:56;;;;;;;9.75;6.65;;;;;;;-145.61;100.00;68426.72;4778555;30;20069;-92
2021/05/15 08:06:21;;;;;;;7.70;6.25;;;;;;;-145.61;100.00;68426.72;4778538;30;20055;-93
2021/05/15 08:08:46;;;;;;;7.50;6.18;;;;;;;-145.61;100.00;68426.72;4778456;30;20093;-92
2021/05/15 08:17:58;;;;;;;8.30;4.60;;;;;;;13.85;100.00;88248.34;4794594;30;20067;-93
2021/05/15 08:20:23;;;;;;;6.10;4.80;;;;;;;13.85;60.95;95538.03;4778402;30;20509;-91
2021/05/15 08:22:50;;;;;;;6.93;4.80;;;;;;;13.85;60.95;95538.03;4778194;30;20122;-89
2021/05/15 08:25:17;;;;;;;5.93;4.00;;;;;;;14.69;58.22;95617.03;4778354;30;20423;-92
2021/05/15 08:27:44;;;;;;;7.97;3.85;;;;;;;14.99;62.17;95619.91;4778294;30;20126;-92
2021/05/15 08:30:18;;;;;;;4.93;3.38;;;;;;;15.01;59.92;95616.66;4778188;30;20039;-94
2021/05/15 08:32:44;;;;;;;4.70;3.30;;;;;;;15.01;59.92;95616.66;4778170;30;20062;-93
2021/05/15 08:35:10;;;;;;;5.53;2.50;;;;;;;15.13;59.75;95610.66;4777982;30;20035;-93
2021/05/15 08:37:35;;;;;;;3.70;1.90;;;;;;;15.16;56.54;95585.00;4777984;30;20078;-92
2021/05/15 08:40:01;;;;;;;3.72;1.45;;;;;;;15.23;54.85;95586.44;4778398;30;20023;-92
2021/05/15 08:42:28;;;;;;;2.80;1.50;;;;;;;15.55;56.11;95625.03;4779044;30;20035;-95
2021/05/15 08:44:57;;;;;;;2.28;1.40;;;;;;;15.39;57.76;95557.50;4778118;30;20031;-94
2021/05/15 08:47:22;;;;;;;1.70;1.60;;;;;;;15.10;56.53;95567.88;4777898;30;20175;-96
2021/05/15 08:49:48;;;;;;;3.65;1.50;;;;;;;15.27;56.92;95594.41;4777899;30;20035;-92
2021/05/15 08:52:14;;;;;;;2.53;1.40;;;;;;;15.31;55.84;95603.81;4777901;30;20034;-93
2021/05/15 08:54:40;;;;;;;2.40;1.40;;;;;;;15.28;57.41;95593.13;4777879;30;20031;-92
2021/05/15 08:57:06;;;;;;;2.15;1.42;;;;;;;15.47;57.20;95610.44;4777871;30;20318;-92
2021/05/15 08:59:31;;;;;;;3.08;1.27;;;;;;;15.15;56.13;95533.56;4793548;30;20096;-92
2021/05/15 09:02:01;;;;;;;2.38;1.70;;;;;;;15.36;54.40;95575.69;4777401;30;20031;-91
2021/05/15 09:04:27;;;;;;;2.55;1.60;;;;;;;15.90;56.03;95605.16;4776052;29;20031;-89
2021/05/15 09:06:52;;;;;;;1.98;1.30;;;;;;;15.58;52.49;95610.34;4798695;29;20030;-91
2021/05/15 09:09:18;;;;;;;1.83;1.30;;;;;;;15.40;54.74;95559.75;4777363;30;20035;-90
2021/05/15 09:11:44;;;;;;;4.15;1.30;;;;;;;15.60;51.93;95580.47;4777519;29;20046;-91
2021/05/15 09:14:18;;;;;;;1.65;1.27;;;;;;;15.96;51.45;95613.34;4779341;29;20114;-92
2021/05/15 09:16:52;;;;;;;1.73;1.40;;;;;;;16.22;54.33;95602.63;4784716;29;20035;-92
2021/05/15 09:19:25;;;;;;;2.35;1.45;;;;;;;15.86;53.21;95536.25;4777427;30;20057;-93
2021/05/15 09:22:05;;;;;;;2.75;1.50;;;;;;;16.40;52.96;95586.75;4784598;30;20035;-93
2021/05/15 09:24:34;;;;;;;2.17;1.08;;;;;;;16.39;52.61;95591.50;4784750;29;20035;-94
2021/05/15 09:27:04;;;;;;;2.38;1.13;;;;;;;16.05;48.08;95538.34;4799110;29;20035;-94
2021/05/15 09:29:43;;;;;;;2.10;1.10;;;;;;;15.96;49.30;95531.19;4778306;30;20420;-93
2021/05/15 09:32:09;;;;;;;1.95;1.20;;;;;;;16.20;51.97;95558.59;4784642;30;20030;-92
2021/05/15 09:34:49;;;;;;;2.35;1.30;;;;;;;16.59;49.16;95584.81;4783943;29;20436;-92
2021/05/15 09:37:34;;;;;;;3.53;1.25;;;;;;;16.61;50.06;95537.69;4784196;30;20141;-93
2021/05/15 09:40:11;;;;;;;1.95;1.23;;;;;;;16.73;50.11;95548.06;4786212;29;20046;-92
2021/05/15 09:42:48;;;;;;;1.92;1.30;;;;;;;16.58;48.21;95553.19;4784695;29;20452;-93
2021/05/15 09:45:17;;;;;;;2.75;1.25;;;;;;;16.78;47.54;95576.66;4784216;30;20122;-93
2021/05/15 09:48:01;;;;;;;1.73;1.20;;;;;;;16.82;48.33;95565.38;4792152;29;20386;-93
2021/05/15 09:50:33;;;;;;;2.53;1.10;;;;;;;16.62;47.94;95517.25;4802269;29;20034;-93
2021/05/15 09:53:03;;;;;;;1.20;1.10;;;;;;;16.85;46.66;95542.44;4777158;30;20385;-93
2021/05/15 09:55:28;;;;;;;1.92;1.20;;;;;;;16.59;45.53;95501.84;4792503;29;20027;-92
2021/05/15 09:57:55;;;;;;;2.40;1.17;;;;;;;16.74;46.56;95502.19;4776647;30;20039;-92
2021/05/15 10:00:21;;;;;;;1.65;1.25;;;;;;;16.68;44.75;95485.78;4776744;30;20033;-92
2021/05/15 10:02:54;;;;;;;2.33;1.20;;;;;;;17.16;45.16;95543.75;4776715;30;20443;-95
2021/05/15 10:05:21;;;;;;;3.08;1.30;;;;;;;17.00;46.36;95485.88;4777039;30;20440;-93
2021/05/15 10:07:46;;;;;;;2.70;1.08;;;;;;;17.16;46.42;95475.91;4776835;30;20098;-93
2021/05/15 10:10:12;;;;;;;3.65;1.10;;;;;;;17.75;46.96;95523.41;4789287;29;20380;-93
2021/05/15 10:12:37;;;;;;;1.35;1.02;;;;;;;17.81;46.42;95495.84;4786063;30;20030;-96
2021/05/15 10:15:06;;;;;;;3.90;1.30;;;;;;;18.02;46.60;95490.47;4777531;30;20035;-94
2021/05/15 10:17:35;;;;;;;4.28;1.15;;;;;;;17.83;43.29;95498.06;4785535;29;20038;-94
2021/05/15 10:20:09;;;;;;;3.25;1.27;;;;;;;18.19;43.74;95501.88;4776286;30;20071;-91
2021/05/15 10:22:44;;;;;;;1.77;1.10;;;;;;;18.70;43.77;95525.66;4776198;30;20421;-92
2021/05/15 10:25:14;;;;;;;1.65;1.30;;;;;;;18.78;45.33;95499.00;4775994;30;20122;-93
2021/05/15 10:27:40;;;;;;;2.38;1.27;;;;;;;19.15;41.24;95539.19;4776334;30;20031;-94
2021/05/15 10:30:16;;;;;;;1.20;1.05;;;;;;;19.25;45.35;95504.44;4776215;30;20039;-94
2021/05/15 10:32:53;;;;;;;1.92;1.10;;;;;;;19.05;42.87;95497.63;4776198;30;20019;-92
2021/05/15 10:35:52;;;;;;;2.83;1.80;;;;;;;18.75;44.39;95480.78;4776011;30;20051;-93
2021/05/15 10:38:20;;;;;;;1.90;0.98;;;;;;;18.88;41.53;95494.53;4773362;30;20051;-92
2021/05/15 10:40:50;;;;;;;1.85;1.00;;;;;;;19.44;42.91;95482.25;4776117;30;20034;-95
2021/05/15 10:43:32;;;;;;;1.50;1.10;;;;;;;18.86;41.65;95485.34;4793986;29;20034;-92
2021/05/15 10:45:58;;;;;;;1.70;1.08;;;;;;;19.31;40.93;95480.28;4793984;29;20037;-92
2021/05/15 10:48:28;;;;;;;2.65;1.15;;;;;;;19.29;38.67;95469.06;4793591;29;20031;-92
2021/05/15 10:51:01;;;;;;;1.35;1.00;;;;;;;19.55;38.93;95509.50;4776008;30;20027;-93
2021/05/15 10:53:31;;;;;;;1.90;1.15;;;;;;;19.33;39.25;95496.25;4775806;30;20042;-92
2021/05/15 10:56:01;;;;;;;1.60;1.10;;;;;;;19.44;40.97;95509.00;4775820;30;20031;-92
2021/05/15 10:58:43;;;;;;;2.25;1.10;;;;;;;19.87;42.70;95506.47;4795117;30;20390;-92
2021/05/15 11:01:18;;;;;;;1.60;1.00;;;;;;;19.17;41.49;95461.59;4778379;30;20028;-93
2021/05/15 11:03:44;;;;;;;4.00;1.20;;;;;;;18.75;40.70;95489.81;4776427;30;20093;-93
2021/05/15 11:06:21;;;;;;;2.08;1.30;;;;;;;18.63;41.45;95502.25;4779216;30;20024;-93
2021/05/15 11:09:02;;;;;;;2.40;1.13;;;;;;;18.41;41.14;95497.97;4777189;30;20049;-91
2021/05/15 11:11:38;;;;;;;1.65;1.10;;;;;;;18.32;44.79;95454.41;4760491;30;20417;-92
2021/05/15 11:14:24;;;;;;;1.65;1.10;;;;;;;18.35;42.45;95420.38;4758267;30;20459;-91
2021/05/15 11:17:21;;;;;;;1.70;1.00;;;;;;;18.76;39.99;95468.53;4765521;30;20023;-91
2021/05/15 11:19:58;;;;;;;1.02;0.75;;;;;;;19.46;41.82;95493.44;4775990;30;20129;-92
2021/05/15 11:22:51;;;;;;;3.35;1.20;;;;;;;19.51;39.43;95487.06;4775620;30;20058;-92
2021/05/15 11:25:27;;;;;;;1.75;1.25;;;;;;;19.47;41.78;95480.41;4770637;30;20051;-93
2021/05/15 11:28:03;;;;;;;1.25;1.10;;;;;;;19.48;41.96;95487.41;4775724;30;20181;-91
2021/05/15 11:30:30;;;;;;;1.33;0.98;;;;;;;19.30;39.90;95486.31;4775739;30;20118;-92
2021/05/15 11:33:04;;;;;;;2.35;1.20;;;;;;;19.48;41.53;95492.91;4775703;30;20027;-92
2021/05/15 11:35:41;;;;;;;1.75;1.30;;;;;;;20.09;42.69;95460.34;4775601;30;20094;-93
2021/05/15 11:38:14;;;;;;;1.63;1.23;;;;;;;20.51;40.29;95452.66;4779087;30;20035;-91
2021/05/15 11:40:44;;;;;;;3.45;1.42;;;;;;;19.98;40.88;95422.06;4779150;30;20043;-91
2021/05/15 11:43:10;;;;;;;4.00;1.13;;;;;;;19.79;41.60;95480.88;4779177;30;20042;-91